createdAt,value
2019-03-27T00:00:15.696Z,8.45
2019-03-27T00:02:44.481Z,8.45
2019-03-27T00:05:12.974Z,8.45
2019-03-27T00:07:41.357Z,8.38
2019-03-27T00:10:11.263Z,8.31
2019-03-27T00:12:40.310Z,8.32
2019-03-27T00:15:13.755Z,8.39
2019-03-27T00:17:42.627Z,8.24
2019-03-27T00:20:13.116Z,8.22
2019-03-27T00:22:41.562Z,8.20
2019-03-27T00:25:10.854Z,8.26
2019-03-27T00:27:39.513Z,8.29
2019-03-27T00:30:09.370Z,8.29
2019-03-27T00:32:38.327Z,8.21
2019-03-27T00:35:08.557Z,8.26
2019-03-27T00:37:37.372Z,8.33
2019-03-27T00:40:06.688Z,8.29
2019-03-27T00:42:35.795Z,8.21
2019-03-27T00:45:08.188Z,8.40
2019-03-27T00:47:36.634Z,8.25
2019-03-27T00:50:08.151Z,8.18
2019-03-27T00:52:36.606Z,8.34
2019-03-27T00:55:07.888Z,8.17
2019-03-27T00:57:36.308Z,7.92
2019-03-27T01:00:19.994Z,7.98
2019-03-27T01:02:48.449Z,7.95
2019-03-27T01:05:16.870Z,8.10
2019-03-27T01:07:45.246Z,8.17
2019-03-27T01:10:13.933Z,8.12
2019-03-27T01:12:42.352Z,8.09
2019-03-27T01:15:10.794Z,8.09
2019-03-27T01:17:39.138Z,8.16
2019-03-27T01:20:07.653Z,8.19
2019-03-27T01:22:36.471Z,8.10
2019-03-27T01:25:06.292Z,8.23
2019-03-27T01:27:35.829Z,8.14
2019-03-27T01:30:05.129Z,7.96
2019-03-27T01:32:33.474Z,7.88
2019-03-27T01:35:01.931Z,7.98
2019-03-27T01:37:30.261Z,7.90
2019-03-27T01:39:58.641Z,8.07
2019-03-27T01:42:26.982Z,8.20
2019-03-27T01:44:55.366Z,7.92
2019-03-27T01:47:23.710Z,7.73
2019-03-27T01:49:52.084Z,7.71
2019-03-27T01:52:20.432Z,7.28
2019-03-27T01:54:48.840Z,7.45
2019-03-27T01:57:17.229Z,7.25
2019-03-27T01:59:46.681Z,7.65
2019-03-27T02:02:15.102Z,7.73
2019-03-27T02:04:43.544Z,7.93
2019-03-27T02:07:11.891Z,7.80
2019-03-27T02:09:40.264Z,7.84
2019-03-27T02:12:08.713Z,7.75
2019-03-27T02:14:37.095Z,7.87
2019-03-27T02:17:05.576Z,7.67
2019-03-27T02:19:33.953Z,7.83
2019-03-27T02:22:02.848Z,7.75
2019-03-27T02:24:31.224Z,7.91
2019-03-27T02:26:59.639Z,7.96
2019-03-27T02:29:28.080Z,7.93
2019-03-27T02:31:56.437Z,7.89
2019-03-27T02:34:24.819Z,7.92
2019-03-27T02:36:53.159Z,7.89
2019-03-27T02:39:21.546Z,7.94
2019-03-27T02:41:49.893Z,7.85
2019-03-27T02:44:18.270Z,7.82
2019-03-27T02:46:46.610Z,7.82
2019-03-27T02:49:14.990Z,7.84
2019-03-27T02:51:43.407Z,7.93
2019-03-27T02:54:11.858Z,7.83
2019-03-27T02:56:40.270Z,7.86
2019-03-27T02:59:08.656Z,7.78
2019-03-27T03:01:37.066Z,7.57
2019-03-27T03:04:05.527Z,7.48
2019-03-27T03:06:34.002Z,7.51
2019-03-27T03:09:02.376Z,7.40
2019-03-27T03:11:30.724Z,7.33
2019-03-27T03:13:59.107Z,7.34
2019-03-27T03:16:41.380Z,7.38
2019-03-27T03:18:57.619Z,7.20
2019-03-27T03:21:25.958Z,6.91
2019-03-27T03:23:54.439Z,6.87
2019-03-27T03:26:22.770Z,6.85
2019-03-27T03:28:51.147Z,6.97
2019-03-27T03:31:19.530Z,7.06
2019-03-27T03:33:47.903Z,6.87
2019-03-27T03:36:16.250Z,6.87
2019-03-27T03:38:44.631Z,6.85
2019-03-27T03:41:12.980Z,6.76
2019-03-27T03:43:41.428Z,6.79
2019-03-27T03:46:09.779Z,6.76
2019-03-27T03:48:38.151Z,6.57
2019-03-27T03:51:06.575Z,6.32
2019-03-27T03:53:35.635Z,6.50
2019-03-27T03:56:04.420Z,6.42
2019-03-27T03:58:36.048Z,6.22
2019-03-27T04:01:04.569Z,6.34
2019-03-27T04:03:35.434Z,6.46
2019-03-27T04:06:03.881Z,6.44
2019-03-27T04:08:32.229Z,6.61
2019-03-27T04:11:00.642Z,6.54
2019-03-27T04:13:29.054Z,6.60
2019-03-27T04:15:57.496Z,6.57
2019-03-27T04:18:25.851Z,6.44
2019-03-27T04:20:54.235Z,6.34
2019-03-27T04:23:22.725Z,6.09
2019-03-27T04:26:09.250Z,6.12
2019-03-27T04:28:21.269Z,6.17
2019-03-27T04:30:49.638Z,5.98
2019-03-27T04:33:18.023Z,5.95
2019-03-27T04:35:46.372Z,5.76
2019-03-27T04:38:14.708Z,5.69
2019-03-27T04:40:43.087Z,5.96
2019-03-27T04:43:11.579Z,5.89
2019-03-27T04:45:40.129Z,5.72
2019-03-27T04:48:08.459Z,5.77
2019-03-27T04:50:36.914Z,5.89
2019-03-27T04:53:06.755Z,5.88
2019-03-27T04:55:35.136Z,6.02
2019-03-27T04:58:03.725Z,5.89
2019-03-27T05:00:32.473Z,5.92
2019-03-27T05:03:00.879Z,5.84
2019-03-27T05:05:29.259Z,5.69
2019-03-27T05:07:57.741Z,5.65
2019-03-27T05:10:26.439Z,5.51
2019-03-27T05:12:54.812Z,5.34
2019-03-27T05:15:23.189Z,5.48
2019-03-27T05:17:51.538Z,5.55
2019-03-27T05:20:20.110Z,5.54
2019-03-27T05:22:48.460Z,5.46
2019-03-27T05:25:17.077Z,5.40
2019-03-27T05:27:45.424Z,5.25
2019-03-27T05:30:15.884Z,4.96
2019-03-27T05:32:44.482Z,5.06
2019-03-27T05:35:13.127Z,5.34
2019-03-27T05:37:41.612Z,5.37
2019-03-27T05:40:10.131Z,5.41
2019-03-27T05:42:38.633Z,5.52
2019-03-27T05:45:07.665Z,5.34
2019-03-27T05:47:36.484Z,5.16
2019-03-27T05:50:06.674Z,5.16
2019-03-27T05:52:36.193Z,5.36
2019-03-27T05:55:05.331Z,5.44
2019-03-27T05:57:33.745Z,5.36
2019-03-27T06:00:02.468Z,5.53
2019-03-27T06:02:30.812Z,5.63
2019-03-27T06:04:59.260Z,5.55
2019-03-27T06:07:27.611Z,5.52
2019-03-27T06:09:56.169Z,5.74
2019-03-27T06:12:24.512Z,5.85
2019-03-27T06:14:52.893Z,5.94
2019-03-27T06:17:21.249Z,5.89
2019-03-27T06:19:49.619Z,5.91
2019-03-27T06:22:18.037Z,6.02
2019-03-27T06:24:46.423Z,5.89
2019-03-27T06:27:14.771Z,6.06
2019-03-27T06:29:43.155Z,5.96
2019-03-27T06:32:11.552Z,6.07
2019-03-27T06:34:39.887Z,6.11
2019-03-27T06:37:08.239Z,6.02
2019-03-27T06:39:36.622Z,5.93
2019-03-27T06:42:05.030Z,6.18
2019-03-27T06:44:33.413Z,6.17
2019-03-27T06:47:01.781Z,6.26
2019-03-27T06:49:30.158Z,6.35
2019-03-27T06:51:58.573Z,6.22
2019-03-27T06:54:26.959Z,6.17
2019-03-27T06:56:55.306Z,6.30
2019-03-27T06:59:23.688Z,6.34
2019-03-27T07:01:52.035Z,6.42
2019-03-27T07:04:20.487Z,6.41
2019-03-27T07:06:48.839Z,6.45
2019-03-27T07:09:17.195Z,6.52
2019-03-27T07:11:45.579Z,6.53
2019-03-27T07:14:13.933Z,6.65
2019-03-27T07:16:42.316Z,6.72
2019-03-27T07:19:10.661Z,6.77
2019-03-27T07:21:39.120Z,6.81
2019-03-27T07:24:07.471Z,6.84
2019-03-27T07:26:35.858Z,6.94
2019-03-27T07:29:04.274Z,7.01
2019-03-27T07:31:32.661Z,7.12
2019-03-27T07:34:01.016Z,7.15
2019-03-27T07:36:29.397Z,7.27
2019-03-27T07:39:10.460Z,7.27
2019-03-27T07:41:27.922Z,7.28
2019-03-27T07:43:56.344Z,7.43
2019-03-27T07:46:24.730Z,7.47
2019-03-27T07:48:54.344Z,7.56
2019-03-27T07:51:23.115Z,7.64
2019-03-27T07:53:51.472Z,7.67
2019-03-27T07:56:19.848Z,7.66
2019-03-27T07:58:48.200Z,7.65
2019-03-27T08:01:16.595Z,7.73
2019-03-27T08:03:44.938Z,7.87
2019-03-27T08:06:13.394Z,7.87
2019-03-27T08:08:41.818Z,7.96
2019-03-27T08:11:13.141Z,8.04
2019-03-27T08:13:41.547Z,8.07
2019-03-27T08:16:09.926Z,7.97
2019-03-27T08:18:38.344Z,8.05
2019-03-27T08:21:06.731Z,8.13
2019-03-27T08:23:35.081Z,8.17
2019-03-27T08:26:03.466Z,8.18
2019-03-27T08:28:31.887Z,8.21
2019-03-27T08:31:00.278Z,8.25
2019-03-27T08:33:28.697Z,8.28
2019-03-27T08:35:57.079Z,8.27
2019-03-27T08:38:25.430Z,8.37
2019-03-27T08:40:53.809Z,8.45
2019-03-27T08:43:25.466Z,8.50
2019-03-27T08:45:52.269Z,8.56
2019-03-27T08:48:20.620Z,8.60
2019-03-27T08:50:49.080Z,8.65
2019-03-27T08:53:17.426Z,8.67
2019-03-27T08:55:45.887Z,8.83
2019-03-27T08:58:14.234Z,9.02
2019-03-27T09:00:53.756Z,9.10
2019-03-27T09:03:22.394Z,9.46
2019-03-27T09:05:50.882Z,9.53
2019-03-27T09:08:19.369Z,9.68
2019-03-27T09:10:47.886Z,9.84
2019-03-27T09:13:16.307Z,9.98
2019-03-27T09:15:44.789Z,9.89
2019-03-27T09:18:15.505Z,9.87
2019-03-27T09:20:43.317Z,9.92
2019-03-27T09:23:11.669Z,10.02
2019-03-27T09:25:40.127Z,10.07
2019-03-27T09:28:08.552Z,10.08
2019-03-27T09:30:36.940Z,10.14
2019-03-27T09:33:05.363Z,10.07
2019-03-27T09:35:33.756Z,10.11
2019-03-27T09:38:02.172Z,10.24
2019-03-27T09:40:30.632Z,10.34
2019-03-27T09:42:59.146Z,10.29
2019-03-27T09:45:27.591Z,10.22
2019-03-27T09:47:56.013Z,10.27
2019-03-27T09:50:24.475Z,10.26
2019-03-27T09:52:52.898Z,10.48
2019-03-27T09:55:21.279Z,10.60
2019-03-27T09:57:49.644Z,10.65
2019-03-27T10:00:21.210Z,10.69
2019-03-27T10:02:49.627Z,10.62
2019-03-27T10:05:18.017Z,10.72
2019-03-27T10:07:46.438Z,10.68
2019-03-27T10:10:14.959Z,10.60
2019-03-27T10:12:43.314Z,10.57
2019-03-27T10:15:11.954Z,10.60
2019-03-27T10:17:40.299Z,10.63
2019-03-27T10:20:08.862Z,10.63
2019-03-27T10:22:37.258Z,10.48
2019-03-27T10:25:08.866Z,10.34
2019-03-27T10:27:37.302Z,10.18
2019-03-27T10:30:07.391Z,10.16
2019-03-27T10:32:35.750Z,10.26
2019-03-27T10:35:05.430Z,10.39
2019-03-27T10:37:33.814Z,10.51
2019-03-27T10:40:02.243Z,10.71
2019-03-27T10:42:31.163Z,10.95
2019-03-27T10:45:03.170Z,11.07
2019-03-27T10:47:31.700Z,10.94
2019-03-27T10:50:02.380Z,10.94
2019-03-27T10:52:31.416Z,11.01
2019-03-27T10:55:00.399Z,11.08
2019-03-27T10:57:29.584Z,10.95
2019-03-27T10:59:58.457Z,11.12
2019-03-27T11:02:27.181Z,11.20
2019-03-27T11:04:55.601Z,11.14
2019-03-27T11:07:24.062Z,11.21
2019-03-27T11:09:52.728Z,11.13
2019-03-27T11:12:21.121Z,11.15
2019-03-27T11:14:49.479Z,11.17
2019-03-27T11:17:17.857Z,11.16
2019-03-27T11:19:46.213Z,11.10
2019-03-27T11:22:14.605Z,11.03
2019-03-27T11:24:42.957Z,11.07
2019-03-27T11:27:11.348Z,11.02
2019-03-27T11:29:39.701Z,11.03
2019-03-27T11:32:08.101Z,10.94
2019-03-27T11:34:36.442Z,10.90
2019-03-27T11:37:04.917Z,10.95
2019-03-27T11:39:33.578Z,11.02
2019-03-27T11:42:02.099Z,11.12
2019-03-27T11:44:30.458Z,11.17
2019-03-27T11:46:58.913Z,11.30
2019-03-27T11:49:27.497Z,11.43
2019-03-27T11:51:55.837Z,11.46
2019-03-27T11:54:24.185Z,11.43
2019-03-27T11:56:52.645Z,11.46
2019-03-27T11:59:21.071Z,11.43
2019-03-27T12:01:49.451Z,11.48
2019-03-27T12:04:17.809Z,11.54
2019-03-27T12:06:46.199Z,11.57
2019-03-27T12:09:14.623Z,11.72
2019-03-27T12:11:43.006Z,11.76
2019-03-27T12:14:12.369Z,11.81
2019-03-27T12:16:40.927Z,11.99
2019-03-27T12:19:09.429Z,12.05
2019-03-27T12:21:37.814Z,12.02
2019-03-27T12:24:06.309Z,12.08
2019-03-27T12:26:34.698Z,11.93
2019-03-27T12:29:03.127Z,11.96
2019-03-27T12:31:31.815Z,11.96
2019-03-27T12:34:00.161Z,12.09
2019-03-27T12:36:28.623Z,12.01
2019-03-27T12:38:56.972Z,11.64
2019-03-27T12:41:25.465Z,11.83
2019-03-27T12:43:53.789Z,11.98
2019-03-27T12:46:22.173Z,12.23
2019-03-27T12:48:50.532Z,12.07
2019-03-27T12:51:19.343Z,12.14
2019-03-27T12:53:47.900Z,12.23
2019-03-27T12:56:16.427Z,12.27
2019-03-27T12:58:44.782Z,12.17
2019-03-27T13:01:13.317Z,11.71
2019-03-27T13:03:44.447Z,11.96
2019-03-27T13:06:11.933Z,12.15
2019-03-27T13:08:40.398Z,12.19
2019-03-27T13:11:08.829Z,12.17
2019-03-27T13:13:37.482Z,12.34
2019-03-27T13:16:05.974Z,12.31
2019-03-27T13:18:34.816Z,12.32
2019-03-27T13:21:03.753Z,12.29
2019-03-27T13:23:33.728Z,12.27
2019-03-27T13:26:02.083Z,12.25
2019-03-27T13:28:30.464Z,12.25
2019-03-27T13:30:58.901Z,12.28
2019-03-27T13:35:01.919Z,11.99
2019-03-27T13:37:30.299Z,11.84
2019-03-27T13:40:00.078Z,11.92
2019-03-27T13:42:28.795Z,12.10
2019-03-27T13:44:57.158Z,12.18
2019-03-27T13:47:25.545Z,12.07
2019-03-27T13:49:53.914Z,12.07
2019-03-27T13:52:25.411Z,12.14
2019-03-27T13:54:53.781Z,12.10
2019-03-27T13:57:22.171Z,12.18
2019-03-27T13:59:50.596Z,12.32
2019-03-27T14:02:19.050Z,12.44
2019-03-27T14:04:47.476Z,12.46
2019-03-27T14:07:15.873Z,12.42
2019-03-27T14:09:44.220Z,12.42
2019-03-27T14:12:12.679Z,12.48
2019-03-27T14:14:50.343Z,12.40
2019-03-27T14:17:11.146Z,12.03
2019-03-27T14:19:39.505Z,11.83
2019-03-27T14:22:07.899Z,11.77
2019-03-27T14:24:36.256Z,12.04
2019-03-27T14:27:04.714Z,12.14
2019-03-27T14:29:33.067Z,12.13
2019-03-27T14:32:01.454Z,12.11
2019-03-27T14:34:29.816Z,12.09
2019-03-27T14:36:58.199Z,12.14
2019-03-27T14:39:26.546Z,12.26
2019-03-27T14:41:54.995Z,12.33
2019-03-27T14:44:23.357Z,12.39
2019-03-27T14:46:51.820Z,12.39
2019-03-27T14:49:20.240Z,12.46
2019-03-27T14:51:48.693Z,12.48
2019-03-27T14:54:17.039Z,12.47
2019-03-27T14:56:45.397Z,12.46
2019-03-27T14:59:13.788Z,12.49
2019-03-27T15:01:42.134Z,12.56
2019-03-27T15:04:10.658Z,12.55
2019-03-27T15:06:39.007Z,12.70
2019-03-27T15:09:08.706Z,12.78
2019-03-27T15:11:37.130Z,12.79
2019-03-27T15:14:05.904Z,12.81
2019-03-27T15:16:34.955Z,12.74
2019-03-27T15:19:04.152Z,12.69
2019-03-27T15:21:32.583Z,12.80
2019-03-27T15:24:02.982Z,12.89
2019-03-27T15:26:32.009Z,12.56
2019-03-27T15:29:00.845Z,12.33
2019-03-27T15:31:31.030Z,12.24
2019-03-27T15:33:59.789Z,12.11
2019-03-27T15:36:29.976Z,12.06
2019-03-27T15:39:00.479Z,12.09
2019-03-27T15:41:30.464Z,11.86
2019-03-27T15:43:59.550Z,11.83
2019-03-27T15:46:28.469Z,12.32
2019-03-27T15:48:57.274Z,12.45
2019-03-27T15:51:26.442Z,12.44
2019-03-27T15:53:55.962Z,12.48
2019-03-27T15:56:25.030Z,12.53
2019-03-27T15:58:56.155Z,12.68
2019-03-27T16:01:25.657Z,12.77
2019-03-27T16:03:56.515Z,12.88
2019-03-27T16:06:25.279Z,12.95
2019-03-27T16:08:54.357Z,12.99
2019-03-27T16:11:23.662Z,13.04
2019-03-27T16:13:53.988Z,13.05
2019-03-27T16:16:22.916Z,13.06
2019-03-27T16:18:53.106Z,13.04
2019-03-27T16:21:22.094Z,13.01
2019-03-27T16:24:05.524Z,12.94
2019-03-27T16:26:24.477Z,12.85
2019-03-27T16:28:53.092Z,12.80
2019-03-27T16:31:24.238Z,12.72
2019-03-27T16:33:56.174Z,12.67
2019-03-27T16:36:28.584Z,12.60
2019-03-27T16:39:00.604Z,12.63
2019-03-27T16:41:29.736Z,12.61
2019-03-27T16:43:58.763Z,12.64
2019-03-27T16:46:29.395Z,12.62
2019-03-27T16:48:57.851Z,12.58
2019-03-27T16:51:26.340Z,12.62
2019-03-27T16:54:03.945Z,12.61
2019-03-27T16:56:31.849Z,12.61
2019-03-27T16:59:00.228Z,12.47
2019-03-27T17:01:29.053Z,12.53
2019-03-27T17:03:57.441Z,12.49
2019-03-27T17:06:25.789Z,12.50
2019-03-27T17:08:54.180Z,12.48
2019-03-27T17:11:22.533Z,12.50
2019-03-27T17:13:50.913Z,12.48
2019-03-27T17:16:19.264Z,12.41
2019-03-27T17:18:47.647Z,12.36
2019-03-27T17:21:16.003Z,12.33
2019-03-27T17:23:44.456Z,12.27
2019-03-27T17:26:12.798Z,12.13
2019-03-27T17:28:41.252Z,12.06
2019-03-27T17:31:09.599Z,12.04
2019-03-27T17:33:37.978Z,11.95
2019-03-27T17:36:06.494Z,11.90
2019-03-27T17:38:34.940Z,11.86
2019-03-27T17:41:03.301Z,11.82
2019-03-27T17:43:31.696Z,11.75
2019-03-27T17:46:00.044Z,11.69
2019-03-27T17:48:28.430Z,11.59
2019-03-27T17:50:56.777Z,11.52
2019-03-27T17:53:31.589Z,11.48
2019-03-27T17:55:55.311Z,11.42
2019-03-27T17:58:23.702Z,11.40
2019-03-27T18:00:52.866Z,11.28
2019-03-27T18:03:21.251Z,11.22
2019-03-27T18:05:50.483Z,11.21
2019-03-27T18:08:21.038Z,11.16
2019-03-27T18:10:50.306Z,11.16
2019-03-27T18:13:18.846Z,11.09
2019-03-27T18:15:47.228Z,10.95
2019-03-27T18:18:15.750Z,10.88
2019-03-27T18:20:44.652Z,10.86
2019-03-27T18:23:13.106Z,10.83
2019-03-27T18:25:41.459Z,10.84
2019-03-27T18:28:10.012Z,10.81
2019-03-27T18:30:38.446Z,10.81
2019-03-27T18:33:06.973Z,10.72
2019-03-27T18:35:35.389Z,10.72
2019-03-27T18:38:03.944Z,10.72
2019-03-27T18:40:32.380Z,10.65
2019-03-27T18:43:00.841Z,10.53
2019-03-27T18:45:29.556Z,10.53
2019-03-27T18:47:57.944Z,10.45
2019-03-27T18:50:26.431Z,10.41
2019-03-27T18:52:54.813Z,10.40
2019-03-27T18:55:26.812Z,10.39
2019-03-27T18:58:00.000Z,10.28
2019-03-27T19:00:23.732Z,10.18
2019-03-27T19:02:52.129Z,10.13
2019-03-27T19:05:20.593Z,10.18
2019-03-27T19:07:48.946Z,10.12
2019-03-27T19:10:17.404Z,10.10
2019-03-27T19:12:45.835Z,10.04
2019-03-27T19:15:14.379Z,9.97
2019-03-27T19:17:42.733Z,9.99
2019-03-27T19:20:11.254Z,9.98
2019-03-27T19:22:39.769Z,9.89
2019-03-27T19:25:08.785Z,9.88
2019-03-27T19:27:37.761Z,9.79
2019-03-27T19:30:07.870Z,9.82
2019-03-27T19:32:36.217Z,9.74
2019-03-27T19:35:05.606Z,9.71
2019-03-27T19:37:34.248Z,9.73
2019-03-27T19:40:02.622Z,9.46
2019-03-27T19:42:31.120Z,9.22
2019-03-27T19:44:59.505Z,9.23
2019-03-27T19:47:27.872Z,9.23
2019-03-27T19:49:56.255Z,9.21
2019-03-27T19:52:24.744Z,9.12
2019-03-27T19:54:53.125Z,9.14
2019-03-27T19:57:21.744Z,8.97
2019-03-27T19:59:50.286Z,8.97
2019-03-27T20:02:18.713Z,8.99
2019-03-27T20:04:47.101Z,8.98
2019-03-27T20:07:15.529Z,8.93
2019-03-27T20:09:43.967Z,8.85
2019-03-27T20:12:12.924Z,8.71
2019-03-27T20:14:42.582Z,8.58
2019-03-27T20:17:11.140Z,8.69
2019-03-27T20:19:39.590Z,8.77
2019-03-27T20:22:08.351Z,8.67
2019-03-27T20:24:41.207Z,8.46
2019-03-27T20:27:07.421Z,8.41
2019-03-27T20:29:35.870Z,8.49
2019-03-27T20:32:04.470Z,8.46
2019-03-27T20:34:35.547Z,8.44
2019-03-27T20:37:03.903Z,8.58
2019-03-27T20:39:32.288Z,8.47
2019-03-27T20:42:00.709Z,8.32
2019-03-27T20:44:29.153Z,8.36
2019-03-27T20:46:57.771Z,8.24
2019-03-27T20:49:26.278Z,8.24
2019-03-27T20:51:55.009Z,8.15
2019-03-27T20:54:23.674Z,8.24
2019-03-27T20:56:52.098Z,8.28
2019-03-27T20:59:20.618Z,8.44
2019-03-27T21:01:49.035Z,8.25
2019-03-27T21:04:17.426Z,8.20
2019-03-27T21:06:46.097Z,8.01
2019-03-27T21:09:15.236Z,8.17
2019-03-27T21:11:43.732Z,8.19
2019-03-27T21:14:12.258Z,8.08
2019-03-27T21:16:40.678Z,8.04
2019-03-27T21:19:09.067Z,8.02
2019-03-27T21:21:37.413Z,8.01
2019-03-27T21:24:05.938Z,7.97
2019-03-27T21:26:34.311Z,7.62
2019-03-27T21:29:02.766Z,7.54
2019-03-27T21:31:31.205Z,7.24
2019-03-27T21:33:59.567Z,7.30
2019-03-27T21:36:27.917Z,7.47
2019-03-27T21:38:56.299Z,7.43
2019-03-27T21:41:24.720Z,7.34
2019-03-27T21:43:53.105Z,7.44
2019-03-27T21:46:21.461Z,7.40
2019-03-27T21:48:49.922Z,7.27
2019-03-27T21:51:21.096Z,7.45
2019-03-27T21:53:50.848Z,7.22
2019-03-27T21:56:19.804Z,7.25
2019-03-27T21:58:48.510Z,7.32
2019-03-27T22:01:17.307Z,7.28
2019-03-27T22:03:47.469Z,7.26
2019-03-27T22:06:16.058Z,7.33
2019-03-27T22:08:44.535Z,7.25
2019-03-27T22:11:13.416Z,7.18
2019-03-27T22:13:42.669Z,7.17
2019-03-27T22:16:11.517Z,7.21
2019-03-27T22:18:39.874Z,7.23
2019-03-27T22:21:08.405Z,7.42
2019-03-27T22:23:36.973Z,7.06
2019-03-27T22:26:05.563Z,7.11
2019-03-27T22:28:33.911Z,7.17
2019-03-27T22:31:02.567Z,7.26
2019-03-27T22:33:31.211Z,7.37
2019-03-27T22:36:00.018Z,7.31
2019-03-27T22:38:29.946Z,7.30
2019-03-27T22:40:58.643Z,7.21
2019-03-27T22:43:27.065Z,7.17
2019-03-27T22:45:57.124Z,7.13
2019-03-27T22:48:25.675Z,6.98
2019-03-27T22:50:54.222Z,6.85
2019-03-27T22:53:22.815Z,7.10
2019-03-27T22:55:51.568Z,7.03
2019-03-27T22:58:19.843Z,6.99
2019-03-27T23:00:53.700Z,6.84
2019-03-27T23:03:22.439Z,6.94
2019-03-27T23:05:50.890Z,6.99
2019-03-27T23:08:19.242Z,7.13
2019-03-27T23:10:47.694Z,7.09
2019-03-27T23:13:16.235Z,6.91
2019-03-27T23:15:46.373Z,6.71
2019-03-27T23:18:15.192Z,6.81
2019-03-27T23:20:43.647Z,6.61
2019-03-27T23:23:12.399Z,6.70
2019-03-27T23:25:41.090Z,6.86
2019-03-27T23:28:09.580Z,6.90
2019-03-27T23:30:38.469Z,7.03
2019-03-27T23:33:06.960Z,6.97
2019-03-27T23:35:35.748Z,6.87
2019-03-27T23:38:04.828Z,6.80
2019-03-27T23:40:33.714Z,6.70
2019-03-27T23:43:02.173Z,6.58
2019-03-27T23:45:30.821Z,6.55
2019-03-27T23:47:59.241Z,6.48
2019-03-27T23:50:27.728Z,6.62
2019-03-27T23:52:56.331Z,6.58
2019-03-27T23:55:25.074Z,6.61
2019-03-27T23:57:53.428Z,6.56
